Impacts TAF Board
For situational awareness. Not to be used for flight planning purposes.
IDs:

KBTR - Baton Rouge/Ryan Fld, LA, US

Issued at 1138 UTC 17 Dec 2018
Updated at 1314 UTC 17 Dec 2018
Potential Impact None Slight Moderate High
Time1253Z 17/14Z 17/15Z 17/16Z 17/17Z 17/18Z 17/19Z 17/20Z 17/21Z 17/22Z 17/23Z 18/00Z 18/01Z 18/02Z>>
Type OBS PRVL PRVL PRVL PRVL PRVL PRVL PRVL PRVL PRVL PRVL PRVL PRVL PRVL
VIS 7 >6 >6 >6 >6 >6 >6 >6 >6 >6 >6 >6 >6 >6
CIG -- 250 250 250 250 250 250 250 250 250 250 250 250 250
Cover CLR BKN BKN BKN BKN BKN BKN BKN BKN BKN BKN BKN BKN BKN
FltCat VFR VFR VFR VFR VFR VFR VFR VFR VFR VFR VFR VFR VFR VFR
WX -- -- -- -- -- -- -- -- -- -- -- -- -- --
WDir VRB VRB VRB VRB VRB VRB VRB VRB VRB VRB VRB VRB VRB VRB
WSpd 0 4 4 4 4 4 4 4 4 4 4 4 4 4
WGst -- -- -- -- -- -- -- -- -- -- -- -- -- --
Raw TAF
KBTR 171138Z 1712/1812 VRB04KT P6SM BKN250
  FM181000 00000KT 4SM BR SCT180


Raw METAR
KBTR 171253Z 00000KT 7SM CLR 07/06 A3029 RMK AO2 SLP256 T00670061
KBTR 171153Z 00000KT 10SM CLR 07/07 A3026 RMK AO2 SLP246 T00720067 10083 20067 53004
KBTR 171053Z AUTO 00000KT 9SM CLR 07/07 A3025 RMK AO2 SLP243 T00720067

METAR Board
Radar Display
Forecast Discussion
For situational awareness. Not to be used for flight planning purposes.